createdAt,value
2023-10-09T00:00:35.477Z,2.70
2023-10-09T00:04:00.649Z,2.70
2023-10-09T00:06:43.360Z,3.40
2023-10-09T00:09:31.574Z,2.20
2023-10-09T00:12:13.688Z,3.00
2023-10-09T00:14:58.569Z,3.60
2023-10-09T00:17:40.658Z,3.00
2023-10-09T00:20:27.530Z,2.80
2023-10-09T00:23:14.001Z,3.20
2023-10-09T00:26:14.647Z,3.00
2023-10-09T00:29:13.580Z,3.10
2023-10-09T00:32:20.562Z,3.30
2023-10-09T00:35:29.605Z,3.10
2023-10-09T00:38:15.789Z,3.00
2023-10-09T00:41:24.566Z,2.90
2023-10-09T00:44:00.769Z,2.80
2023-10-09T00:46:50.538Z,3.20
2023-10-09T00:49:25.651Z,3.50
2023-10-09T00:52:24.578Z,3.90
2023-10-09T00:55:04.442Z,3.50
2023-10-09T00:58:08.524Z,3.20
2023-10-09T01:00:46.552Z,4.10
2023-10-09T01:03:35.675Z,3.70
2023-10-09T01:06:11.658Z,3.70
2023-10-09T01:09:08.928Z,4.90
2023-10-09T01:12:06.638Z,5.10
2023-10-09T01:14:44.434Z,4.70
2023-10-09T01:17:38.569Z,4.60
2023-10-09T01:20:28.715Z,4.50
2023-10-09T01:23:10.550Z,4.30
2023-10-09T01:25:54.017Z,4.60
2023-10-09T01:28:36.533Z,4.40
2023-10-09T01:31:22.107Z,4.10
2023-10-09T01:34:11.688Z,4.70
2023-10-09T01:36:50.324Z,3.90
2023-10-09T01:39:39.541Z,4.00
2023-10-09T01:42:26.282Z,3.80
2023-10-09T01:45:19.589Z,3.50
2023-10-09T01:48:04.585Z,3.30
2023-10-09T01:51:01.558Z,3.90
2023-10-09T01:54:04.567Z,3.20
2023-10-09T01:57:01.543Z,3.70
2023-10-09T02:00:05.208Z,3.50
2023-10-09T02:02:53.676Z,3.40
2023-10-09T02:05:34.638Z,2.80
2023-10-09T02:08:25.539Z,3.40
2023-10-09T02:11:03.379Z,3.40
2023-10-09T02:13:53.530Z,3.50
2023-10-09T02:16:42.822Z,3.20
2023-10-09T02:19:57.538Z,3.40
2023-10-09T02:22:35.800Z,5.50
2023-10-09T02:25:21.980Z,4.90
2023-10-09T02:28:25.522Z,5.60
2023-10-09T02:31:26.571Z,4.90
2023-10-09T02:34:28.543Z,5.10
2023-10-09T02:40:31.529Z,4.00
2023-10-09T02:43:27.514Z,4.40
2023-10-09T02:49:17.549Z,3.10
2023-10-09T02:52:09.555Z,3.90
2023-10-09T02:55:08.521Z,3.70
2023-10-09T02:58:12.528Z,3.00
2023-10-09T03:01:08.535Z,3.60
2023-10-09T03:07:05.527Z,3.70
2023-10-09T03:13:00.518Z,2.70
2023-10-09T03:15:56.513Z,3.60
2023-10-09T03:21:41.540Z,3.90
2023-10-09T03:24:17.776Z,2.70
2023-10-09T03:27:06.639Z,5.00
2023-10-09T03:30:02.557Z,5.20
2023-10-09T03:35:57.535Z,5.10
2023-10-09T03:38:53.495Z,5.30
2023-10-09T03:41:49.562Z,4.60
2023-10-09T03:44:52.584Z,4.90
2023-10-09T03:47:55.585Z,4.10
2023-10-09T03:50:53.550Z,4.40
2023-10-09T03:53:47.620Z,4.00
2023-10-09T03:56:29.608Z,4.20
2023-10-09T03:59:13.273Z,4.30
2023-10-09T04:01:58.934Z,4.20
2023-10-09T04:04:41.620Z,4.10
2023-10-09T04:07:23.619Z,4.20
2023-10-09T04:10:25.517Z,4.60
2023-10-09T04:13:11.881Z,4.00
2023-10-09T04:15:54.709Z,4.10
2023-10-09T04:18:39.706Z,4.00
2023-10-09T04:21:41.680Z,3.90
2023-10-09T04:24:30.550Z,6.10
2023-10-09T04:27:34.531Z,5.70
2023-10-09T04:30:31.587Z,5.50
2023-10-09T04:33:35.730Z,4.40
2023-10-09T04:36:34.543Z,4.80
2023-10-09T04:39:36.396Z,3.80
2023-10-09T04:42:43.508Z,4.70
2023-10-09T04:45:27.188Z,4.50
2023-10-09T04:48:15.505Z,4.60
2023-10-09T04:51:10.588Z,4.30
2023-10-09T04:54:19.537Z,14.80
2023-10-09T04:57:01.563Z,5.10
2023-10-09T04:59:48.794Z,3.50
2023-10-09T05:02:31.599Z,4.00
2023-10-09T05:05:17.787Z,3.70
2023-10-09T05:08:05.578Z,3.50
2023-10-09T05:11:00.154Z,3.10
2023-10-09T05:13:46.517Z,3.10
2023-10-09T05:16:34.621Z,3.20
2023-10-09T05:19:36.486Z,2.60
2023-10-09T05:22:31.418Z,3.20
2023-10-09T05:28:32.515Z,3.00
2023-10-09T05:31:41.547Z,2.90
2023-10-09T05:34:21.264Z,3.60
2023-10-09T05:37:32.509Z,3.70
2023-10-09T05:40:19.748Z,4.40
2023-10-09T05:43:04.186Z,3.10
2023-10-09T05:48:39.618Z,3.30
2023-10-09T05:51:34.737Z,3.40
2023-10-09T05:54:16.496Z,3.20
2023-10-09T05:57:16.569Z,4.00
2023-10-09T06:00:17.580Z,3.60
2023-10-09T06:03:24.914Z,3.60
2023-10-09T06:06:11.481Z,3.20
2023-10-09T06:09:12.358Z,2.80
2023-10-09T06:11:56.522Z,4.50
2023-10-09T06:14:39.566Z,3.70
2023-10-09T06:17:21.502Z,3.30
2023-10-09T06:20:23.530Z,3.20
2023-10-09T06:23:05.479Z,3.10
2023-10-09T06:25:52.801Z,2.80
2023-10-09T06:28:40.514Z,3.30
2023-10-09T06:31:52.207Z,3.30
2023-10-09T06:34:42.469Z,2.70
2023-10-09T06:40:06.481Z,2.90
2023-10-09T06:42:52.528Z,3.20
2023-10-09T06:45:51.661Z,4.10
2023-10-09T06:48:36.472Z,4.00
2023-10-09T06:51:33.539Z,4.20
2023-10-09T06:54:11.002Z,3.80
2023-10-09T06:57:01.463Z,4.00
2023-10-09T06:59:51.503Z,4.40
2023-10-09T07:02:53.512Z,4.10
2023-10-09T07:06:07.513Z,4.20
2023-10-09T07:09:12.562Z,4.00
2023-10-09T07:12:10.525Z,3.60
2023-10-09T07:15:02.724Z,3.60
2023-10-09T07:17:53.597Z,3.20
2023-10-09T07:20:38.238Z,3.60
2023-10-09T07:23:29.479Z,3.70
2023-10-09T07:26:26.569Z,3.80
2023-10-09T07:29:24.459Z,3.80
2023-10-09T07:32:04.754Z,3.70
2023-10-09T07:35:02.497Z,3.60
2023-10-09T07:37:39.191Z,3.20
2023-10-09T07:40:39.529Z,3.30
2023-10-09T07:43:17.703Z,3.30
2023-10-09T07:46:07.533Z,3.80
2023-10-09T07:48:54.957Z,3.50
2023-10-09T07:51:43.524Z,3.30
2023-10-09T07:54:33.208Z,4.40
2023-10-09T07:57:24.536Z,4.70
2023-10-09T08:00:02.538Z,4.10
2023-10-09T08:02:51.479Z,4.10
2023-10-09T08:05:34.424Z,3.40
2023-10-09T08:08:41.567Z,3.60
2023-10-09T08:11:35.542Z,3.30
2023-10-09T08:14:23.496Z,2.80
2023-10-09T08:17:24.518Z,2.90
2023-10-09T08:20:12.842Z,2.60
2023-10-09T08:22:59.569Z,2.50
2023-10-09T08:25:42.496Z,2.40
2023-10-09T08:28:41.107Z,2.50
2023-10-09T08:31:53.466Z,2.20
2023-10-09T08:37:20.493Z,2.50
2023-10-09T08:39:57.291Z,2.20
2023-10-09T08:42:46.433Z,4.20
2023-10-09T08:45:24.124Z,2.90
2023-10-09T08:48:17.063Z,3.10
2023-10-09T08:50:55.541Z,2.90
2023-10-09T08:53:50.458Z,2.70
2023-10-09T08:56:26.750Z,3.00
2023-10-09T08:59:15.555Z,2.80
2023-10-09T09:01:53.291Z,2.90
2023-10-09T09:04:47.181Z,3.20
2023-10-09T09:07:33.590Z,2.60
2023-10-09T09:10:19.000Z,2.40
2023-10-09T09:13:15.508Z,2.50
2023-10-09T09:15:58.768Z,2.50
2023-10-09T09:19:04.442Z,2.40
2023-10-09T09:21:50.174Z,2.60
2023-10-09T09:24:34.733Z,2.40
2023-10-09T09:27:11.733Z,3.20
2023-10-09T09:30:01.441Z,2.80
2023-10-09T09:33:17.455Z,3.00
2023-10-09T09:36:20.448Z,3.00
2023-10-09T09:39:26.632Z,2.80
2023-10-09T09:42:23.505Z,2.70
2023-10-09T09:45:20.502Z,2.60
2023-10-09T09:48:22.532Z,2.30
2023-10-09T09:51:18.499Z,1.90
2023-10-09T09:54:07.526Z,2.30
2023-10-09T09:56:44.502Z,1.30
2023-10-09T09:59:30.362Z,1.80
2023-10-09T10:02:16.581Z,1.90
2023-10-09T10:04:52.554Z,2.60
2023-10-09T10:07:31.495Z,1.50
2023-10-09T10:10:55.472Z,1.70
2023-10-09T10:13:50.161Z,2.60
2023-10-09T10:16:25.799Z,1.40
2023-10-09T10:19:29.644Z,1.70
2023-10-09T10:22:37.447Z,1.80
2023-10-09T10:28:46.501Z,1.10
2023-10-09T10:32:08.524Z,1.20
2023-10-09T10:35:04.444Z,1.20
2023-10-09T10:38:08.453Z,2.10
2023-10-09T10:41:08.457Z,1.10
2023-10-09T10:44:07.558Z,1.40
2023-10-09T10:47:03.718Z,1.40
2023-10-09T10:49:52.451Z,1.30
2023-10-09T10:52:42.988Z,2.00
2023-10-09T10:55:37.586Z,1.20
2023-10-09T10:58:48.299Z,1.30
2023-10-09T11:02:00.620Z,1.30
2023-10-09T11:04:37.684Z,1.60
2023-10-09T11:07:32.452Z,1.10
2023-10-09T11:10:07.698Z,1.60
2023-10-09T11:12:59.487Z,1.40
2023-10-09T11:15:45.958Z,1.20
2023-10-09T11:18:35.548Z,1.20
2023-10-09T11:21:17.504Z,1.40
2023-10-09T11:23:59.632Z,1.50
2023-10-09T11:26:41.845Z,1.10
2023-10-09T11:29:26.521Z,1.80
2023-10-09T11:32:12.588Z,5.40
2023-10-09T11:35:01.487Z,1.90
2023-10-09T11:37:46.388Z,1.30
2023-10-09T11:41:01.448Z,1.10
2023-10-09T11:43:55.622Z,1.30
2023-10-09T11:47:04.527Z,1.40
2023-10-09T11:50:02.849Z,2.20
2023-10-09T11:53:16.448Z,1.40
2023-10-09T11:55:59.802Z,1.30
2023-10-09T11:58:41.608Z,0.90
2023-10-09T12:01:24.569Z,1.30
2023-10-09T12:04:06.408Z,1.10
2023-10-09T12:06:50.725Z,1.40
2023-10-09T12:09:32.541Z,1.10
2023-10-09T12:12:15.469Z,1.10
2023-10-09T12:14:59.504Z,1.00
2023-10-09T12:17:45.774Z,1.30
2023-10-09T12:20:42.443Z,1.40
2023-10-09T12:23:17.579Z,1.00
2023-10-09T12:26:07.500Z,1.00
2023-10-09T12:28:47.584Z,1.30
2023-10-09T12:31:41.470Z,1.40
2023-10-09T12:34:18.055Z,1.40
2023-10-09T12:37:09.564Z,1.30
2023-10-09T12:39:44.523Z,1.20
2023-10-09T12:42:35.413Z,1.30
2023-10-09T12:45:19.653Z,1.50
2023-10-09T12:48:17.499Z,1.40
2023-10-09T12:51:14.434Z,1.40
2023-10-09T12:54:10.529Z,1.10
2023-10-09T12:57:07.450Z,2.90
2023-10-09T13:00:03.444Z,2.50
2023-10-09T13:02:59.586Z,1.40
2023-10-09T13:06:06.418Z,1.30
2023-10-09T13:09:07.430Z,1.00
2023-10-09T13:12:07.411Z,1.10
2023-10-09T13:15:03.482Z,1.40
2023-10-09T13:17:52.588Z,1.40
2023-10-09T13:20:29.020Z,1.40
2023-10-09T13:23:22.421Z,1.50
2023-10-09T13:25:58.624Z,1.70
2023-10-09T13:28:54.440Z,1.70
2023-10-09T13:31:54.472Z,1.40
2023-10-09T13:34:53.439Z,1.50
2023-10-09T13:37:38.001Z,1.40
2023-10-09T13:40:34.479Z,1.40
2023-10-09T13:43:18.183Z,1.60
2023-10-09T13:46:11.412Z,1.30
2023-10-09T13:48:47.742Z,1.60
2023-10-09T13:51:36.429Z,1.50
2023-10-09T13:54:35.651Z,1.60
2023-10-09T13:57:17.471Z,1.30
2023-10-09T13:59:59.388Z,2.10
2023-10-09T14:02:42.330Z,2.00
2023-10-09T14:05:24.422Z,1.60
2023-10-09T14:08:10.136Z,1.60
2023-10-09T14:10:56.456Z,1.70
2023-10-09T14:13:38.561Z,1.90
2023-10-09T14:16:31.661Z,1.70
2023-10-09T14:19:14.869Z,1.70
2023-10-09T14:21:59.876Z,1.70
2023-10-09T14:24:45.495Z,1.80
2023-10-09T14:27:27.384Z,1.90
2023-10-09T14:30:30.410Z,1.90
2023-10-09T14:33:30.427Z,1.70
2023-10-09T14:36:26.410Z,1.80
2023-10-09T14:39:26.497Z,1.50
2023-10-09T14:42:23.424Z,1.60
2023-10-09T14:45:15.480Z,27.20
2023-10-09T14:47:50.519Z,6.70
2023-10-09T14:50:39.582Z,1.70
2023-10-09T14:53:16.488Z,1.50
2023-10-09T14:56:08.589Z,1.70
2023-10-09T14:58:46.078Z,1.60
2023-10-09T15:01:48.489Z,1.90
2023-10-09T15:04:45.446Z,1.60
2023-10-09T15:07:42.666Z,1.60
2023-10-09T15:10:39.441Z,1.40
2023-10-09T15:13:28.375Z,1.70
2023-10-09T15:16:05.038Z,1.70
2023-10-09T15:18:49.658Z,1.60
2023-10-09T15:21:35.413Z,1.80
2023-10-09T15:24:16.253Z,1.70
2023-10-09T15:26:53.684Z,1.40
2023-10-09T15:29:50.394Z,1.70
2023-10-09T15:32:46.510Z,1.30
2023-10-09T15:35:42.404Z,1.90
2023-10-09T15:38:38.390Z,1.70
2023-10-09T15:41:37.417Z,1.80
2023-10-09T15:44:28.317Z,1.40
2023-10-09T15:47:04.584Z,1.70
2023-10-09T15:49:53.424Z,34.60
2023-10-09T15:52:28.895Z,7.50
2023-10-09T15:55:21.389Z,3.30
2023-10-09T15:57:56.494Z,2.40
2023-10-09T16:00:45.403Z,2.20
2023-10-09T16:03:20.581Z,2.10
2023-10-09T16:06:02.639Z,2.00
2023-10-09T16:08:49.371Z,1.80
2023-10-09T16:11:33.428Z,1.90
2023-10-09T16:14:11.348Z,2.30
2023-10-09T16:17:03.518Z,2.30
2023-10-09T16:19:42.049Z,2.70
2023-10-09T16:22:32.355Z,3.40
2023-10-09T16:25:11.097Z,2.30
2023-10-09T16:28:00.388Z,2.80
2023-10-09T16:30:37.258Z,2.30
2023-10-09T16:33:27.438Z,2.40
2023-10-09T16:36:02.613Z,2.90
2023-10-09T16:38:51.423Z,2.70
2023-10-09T16:41:34.421Z,2.70
2023-10-09T16:44:18.659Z,2.90
2023-10-09T16:47:02.439Z,2.80
2023-10-09T16:49:48.437Z,14.30
2023-10-09T16:52:31.386Z,19.00
2023-10-09T16:55:19.574Z,6.00
2023-10-09T16:58:03.935Z,4.40
2023-10-09T17:00:47.946Z,4.30
2023-10-09T17:03:35.766Z,3.40
2023-10-09T17:06:20.567Z,3.70
2023-10-09T17:09:04.446Z,4.00
2023-10-09T17:11:53.265Z,3.80
2023-10-09T17:14:42.391Z,4.50
2023-10-09T17:17:22.043Z,4.10
2023-10-09T17:20:17.471Z,4.20
2023-10-09T17:22:53.519Z,4.10
2023-10-09T17:25:42.420Z,4.90
2023-10-09T17:28:22.480Z,4.90
2023-10-09T17:31:18.466Z,5.50
2023-10-09T17:34:15.618Z,5.40
2023-10-09T17:37:05.405Z,5.80
2023-10-09T17:39:40.605Z,6.30
2023-10-09T17:42:23.038Z,7.80
2023-10-09T17:45:05.483Z,19.30
2023-10-09T17:47:42.287Z,12.90
2023-10-09T17:50:17.750Z,7.70
2023-10-09T17:53:02.507Z,7.40
2023-10-09T17:55:38.495Z,7.50
2023-10-09T17:58:14.324Z,7.90
2023-10-09T18:00:59.612Z,7.10
2023-10-09T18:03:49.545Z,7.50
2023-10-09T18:06:24.605Z,7.30
2023-10-09T18:09:23.400Z,6.60
2023-10-09T18:11:59.178Z,7.10
2023-10-09T18:14:48.368Z,7.30
2023-10-09T18:17:24.454Z,6.10
2023-10-09T18:20:13.420Z,6.50
2023-10-09T18:22:49.922Z,8.10
2023-10-09T18:25:38.364Z,7.50
2023-10-09T18:28:15.356Z,7.20
2023-10-09T18:31:04.447Z,6.90
2023-10-09T18:34:00.352Z,8.20
2023-10-09T18:36:36.915Z,9.40
2023-10-09T18:39:30.359Z,7.60
2023-10-09T18:42:07.995Z,7.80
2023-10-09T18:47:39.636Z,7.80
2023-10-09T18:50:24.371Z,7.50
2023-10-09T18:53:20.391Z,7.80
2023-10-09T18:56:16.450Z,7.90
2023-10-09T18:59:15.819Z,7.50
2023-10-09T19:02:12.508Z,10.20
2023-10-09T19:05:01.441Z,9.20
2023-10-09T19:07:40.595Z,8.70
2023-10-09T19:10:33.360Z,9.20
2023-10-09T19:13:11.254Z,8.40
2023-10-09T19:16:00.388Z,8.00
2023-10-09T19:18:39.392Z,8.60
2023-10-09T19:21:30.356Z,7.30
2023-10-09T19:24:14.712Z,8.50
2023-10-09T19:27:04.346Z,9.30
2023-10-09T19:29:39.510Z,9.20
2023-10-09T19:32:29.646Z,10.00
2023-10-09T19:35:12.394Z,10.90
2023-10-09T19:38:08.398Z,13.80
2023-10-09T19:41:04.462Z,13.20
2023-10-09T19:46:57.460Z,14.50
2023-10-09T19:49:53.341Z,13.10
2023-10-09T19:52:49.401Z,11.70
2023-10-09T19:55:45.399Z,12.40
2023-10-09T19:58:41.342Z,11.30
2023-10-09T20:01:37.376Z,11.90
2023-10-09T20:04:33.340Z,9.90
2023-10-09T20:07:23.616Z,9.30
2023-10-09T20:10:02.640Z,11.10
2023-10-09T20:12:44.887Z,11.60
2023-10-09T20:15:33.350Z,14.30
2023-10-09T20:18:09.382Z,14.70
2023-10-09T20:20:58.422Z,15.90
2023-10-09T20:23:34.791Z,29.60
2023-10-09T20:26:24.559Z,17.50
2023-10-09T20:29:02.163Z,14.40
2023-10-09T20:31:52.457Z,14.70
2023-10-09T20:34:34.346Z,13.20
2023-10-09T20:37:17.852Z,13.60
2023-10-09T20:40:00.530Z,12.10
2023-10-09T20:42:42.390Z,12.00
2023-10-09T20:45:29.336Z,12.10
2023-10-09T20:48:11.500Z,11.20
2023-10-09T20:50:53.356Z,11.30
2023-10-09T20:53:35.706Z,11.40
2023-10-09T20:56:18.458Z,12.20
2023-10-09T20:59:02.165Z,12.60
2023-10-09T21:01:51.471Z,12.40
2023-10-09T21:04:26.465Z,13.80
2023-10-09T21:07:15.457Z,16.20
2023-10-09T21:09:51.420Z,16.40
2023-10-09T21:12:40.335Z,14.60
2023-10-09T21:15:17.487Z,13.20
2023-10-09T21:18:07.922Z,14.40
2023-10-09T21:20:45.465Z,12.50
2023-10-09T21:23:34.306Z,11.60
2023-10-09T21:26:10.475Z,11.80
2023-10-09T21:28:59.332Z,10.10
2023-10-09T21:31:35.667Z,11.30
2023-10-09T21:34:24.408Z,12.10
2023-10-09T21:36:59.376Z,11.10
2023-10-09T21:39:48.509Z,10.00
2023-10-09T21:42:24.398Z,10.60
2023-10-09T21:45:15.341Z,8.80
2023-10-09T21:47:56.436Z,9.00
2023-10-09T21:50:46.340Z,8.80
2023-10-09T21:53:21.431Z,7.90
2023-10-09T21:56:15.753Z,8.90
2023-10-09T21:58:53.843Z,8.20
2023-10-09T22:01:35.578Z,8.60
2023-10-09T22:04:19.385Z,6.90
2023-10-09T22:06:54.415Z,10.50
2023-10-09T22:09:36.309Z,9.70
2023-10-09T22:12:18.408Z,9.90
2023-10-09T22:15:00.324Z,9.40
2023-10-09T22:17:45.433Z,9.00
2023-10-09T22:20:28.363Z,9.70
2023-10-09T22:23:15.096Z,9.60
2023-10-09T22:26:08.505Z,7.70
2023-10-09T22:28:52.022Z,9.00
2023-10-09T22:31:36.402Z,8.60
2023-10-09T22:34:21.090Z,8.10
2023-10-09T22:37:03.341Z,8.90
2023-10-09T22:39:54.308Z,10.00
2023-10-09T22:42:30.371Z,11.60
2023-10-09T22:45:22.314Z,13.80
2023-10-09T22:47:59.619Z,11.40
2023-10-09T22:53:40.667Z,11.00
2023-10-09T22:56:29.376Z,11.90
2023-10-09T22:59:21.520Z,10.90
2023-10-09T23:02:05.005Z,11.20
2023-10-09T23:04:46.335Z,11.20
2023-10-09T23:07:28.303Z,11.50
2023-10-09T23:10:16.279Z,10.60
2023-10-09T23:13:22.311Z,14.00
2023-10-09T23:16:17.657Z,13.40
2023-10-09T23:19:15.574Z,13.00
2023-10-09T23:22:13.824Z,12.20
2023-10-09T23:25:16.330Z,11.80
2023-10-09T23:27:51.991Z,12.20
2023-10-09T23:30:47.325Z,10.80
2023-10-09T23:33:38.329Z,11.80
2023-10-09T23:36:30.055Z,11.00
2023-10-09T23:39:20.301Z,9.80
2023-10-09T23:42:03.753Z,10.30
2023-10-09T23:44:46.302Z,11.80
2023-10-09T23:47:32.944Z,10.30
2023-10-09T23:50:23.384Z,9.90
2023-10-09T23:53:05.383Z,12.10
2023-10-09T23:55:50.684Z,11.40
2023-10-09T23:58:37.263Z,12.30
